createdAt,value
2018-12-18T00:01:14.245Z,21.80
2018-12-18T00:03:42.984Z,22.13
2018-12-18T00:06:11.790Z,21.62
2018-12-18T00:08:40.468Z,22.93
2018-12-18T00:11:10.634Z,22.05
2018-12-18T00:13:39.342Z,22.37
2018-12-18T00:16:08.094Z,19.62
2018-12-18T00:18:36.844Z,19.45
2018-12-18T00:21:05.581Z,21.20
2018-12-18T00:23:34.269Z,21.87
2018-12-18T00:26:03.029Z,20.43
2018-12-18T00:28:31.753Z,18.50
2018-12-18T00:31:00.464Z,20.55
2018-12-18T00:33:29.185Z,21.17
2018-12-18T00:35:57.908Z,19.70
2018-12-18T00:38:26.578Z,19.52
2018-12-18T00:40:55.337Z,19.52
2018-12-18T00:43:24.132Z,20.00
2018-12-18T00:45:53.254Z,18.15
2018-12-18T00:48:21.967Z,18.73
2018-12-18T00:50:50.694Z,17.55
2018-12-18T00:53:19.469Z,19.67
2018-12-18T00:55:48.187Z,17.85
2018-12-18T00:58:16.942Z,18.32
2018-12-18T01:00:45.662Z,18.70
2018-12-18T01:03:14.430Z,19.80
2018-12-18T01:05:43.091Z,17.73
2018-12-18T01:08:11.859Z,19.02
2018-12-18T01:10:40.589Z,17.48
2018-12-18T01:13:09.356Z,18.23
2018-12-18T01:15:38.146Z,17.60
2018-12-18T01:18:06.865Z,19.45
2018-12-18T01:20:35.543Z,18.57
2018-12-18T01:23:04.295Z,17.67
2018-12-18T01:25:33.072Z,18.85
2018-12-18T01:28:01.777Z,18.30
2018-12-18T01:30:30.496Z,18.05
2018-12-18T01:32:59.245Z,19.23
2018-12-18T01:35:27.908Z,18.75
2018-12-18T01:37:56.612Z,17.98
2018-12-18T01:40:25.433Z,18.23
2018-12-18T01:42:54.178Z,18.52
2018-12-18T01:45:23.164Z,18.20
2018-12-18T01:47:51.929Z,18.15
2018-12-18T01:50:20.625Z,19.07
2018-12-18T01:52:49.339Z,17.40
2018-12-18T01:55:18.052Z,19.50
2018-12-18T01:57:46.759Z,17.45
2018-12-18T02:00:16.376Z,17.40
2018-12-18T02:02:45.132Z,18.57
2018-12-18T02:05:13.845Z,19.12
2018-12-18T02:07:42.575Z,18.42
2018-12-18T02:10:11.325Z,17.67
2018-12-18T02:12:40.023Z,18.30
2018-12-18T02:15:08.702Z,17.62
2018-12-18T02:17:37.713Z,17.65
2018-12-18T02:20:07.532Z,17.70
2018-12-18T02:22:36.239Z,18.10
2018-12-18T02:25:06.069Z,18.37
2018-12-18T02:27:34.758Z,19.15
2018-12-18T02:30:03.470Z,17.37
2018-12-18T02:32:32.165Z,17.57
2018-12-18T02:35:00.902Z,17.92
2018-12-18T02:37:29.627Z,16.55
2018-12-18T02:39:58.304Z,17.85
2018-12-18T02:42:27.008Z,18.20
2018-12-18T02:44:55.719Z,18.32
2018-12-18T02:47:24.442Z,17.90
2018-12-18T02:49:53.142Z,18.62
2018-12-18T02:52:21.865Z,18.12
2018-12-18T02:54:50.600Z,18.55
2018-12-18T02:57:19.323Z,17.30
2018-12-18T02:59:48.102Z,18.90
2018-12-18T03:02:16.843Z,18.00
2018-12-18T03:04:45.573Z,18.90
2018-12-18T03:07:14.404Z,18.73
2018-12-18T03:09:43.104Z,18.12
2018-12-18T03:12:11.840Z,17.10
2018-12-18T03:14:40.537Z,17.87
2018-12-18T03:17:09.527Z,18.45
2018-12-18T03:19:38.484Z,17.95
2018-12-18T03:22:07.164Z,18.70
2018-12-18T03:24:35.902Z,18.87
2018-12-18T03:27:04.588Z,18.70
2018-12-18T03:29:33.334Z,18.80
2018-12-18T03:32:03.724Z,18.73
2018-12-18T03:34:32.439Z,19.02
2018-12-18T03:37:01.153Z,18.07
2018-12-18T03:39:29.831Z,20.20
2018-12-18T03:41:58.543Z,19.82
2018-12-18T03:44:27.323Z,19.15
2018-12-18T03:46:56.079Z,19.73
2018-12-18T03:49:24.812Z,19.27
2018-12-18T03:51:53.554Z,19.23
2018-12-18T03:54:22.472Z,21.45
2018-12-18T03:56:51.247Z,19.05
2018-12-18T03:59:19.972Z,20.82
2018-12-18T04:01:48.678Z,19.52
2018-12-18T04:04:17.361Z,20.23
2018-12-18T04:06:46.094Z,19.82
2018-12-18T04:09:14.844Z,20.45
2018-12-18T04:14:50.341Z,20.10
2018-12-18T04:17:19.316Z,21.77
2018-12-18T04:19:48.027Z,20.65
2018-12-18T04:22:16.783Z,21.10
2018-12-18T04:24:45.461Z,19.87
2018-12-18T04:27:14.144Z,21.62
2018-12-18T04:29:43.380Z,22.00
2018-12-18T04:32:12.083Z,21.82
2018-12-18T04:34:43.169Z,21.52
2018-12-18T04:37:11.439Z,21.37
2018-12-18T04:39:40.154Z,23.18
2018-12-18T04:42:08.857Z,23.15
2018-12-18T04:44:37.524Z,22.52
2018-12-18T04:47:06.251Z,20.62
2018-12-18T04:49:35.101Z,21.15
2018-12-18T04:52:04.123Z,21.80
2018-12-18T04:54:32.795Z,21.50
2018-12-18T04:57:01.500Z,22.00
2018-12-18T04:59:30.215Z,22.10
2018-12-18T05:01:59.064Z,21.40
2018-12-18T05:04:27.778Z,22.35
2018-12-18T05:06:56.570Z,22.17
2018-12-18T05:09:25.324Z,22.07
2018-12-18T05:11:54.050Z,23.30
2018-12-18T05:14:22.957Z,22.37
2018-12-18T05:16:51.886Z,21.52
2018-12-18T05:19:20.664Z,36.08
2018-12-18T05:21:49.364Z,20.85
2018-12-18T05:24:18.077Z,23.90
2018-12-18T05:26:46.756Z,23.38
2018-12-18T05:29:15.547Z,22.22
2018-12-18T05:31:44.262Z,21.00
2018-12-18T05:34:12.982Z,24.07
2018-12-18T05:36:41.694Z,25.23
2018-12-18T05:39:10.421Z,22.20
2018-12-18T05:41:39.255Z,20.72
2018-12-18T05:44:08.921Z,27.85
2018-12-18T05:46:37.706Z,24.00
2018-12-18T05:49:06.416Z,22.60
2018-12-18T05:51:35.154Z,23.42
2018-12-18T05:54:03.949Z,21.93
2018-12-18T05:56:32.676Z,23.70
2018-12-18T05:59:01.357Z,22.80
2018-12-18T06:01:30.695Z,23.75
2018-12-18T06:03:59.486Z,24.50
2018-12-18T06:06:28.210Z,24.35
2018-12-18T06:08:57.021Z,23.95
2018-12-18T06:11:25.802Z,24.87
2018-12-18T06:13:54.468Z,25.92
2018-12-18T06:16:23.168Z,22.32
2018-12-18T06:18:51.951Z,23.25
2018-12-18T06:21:20.712Z,23.05
2018-12-18T06:23:49.420Z,23.60
2018-12-18T06:26:18.137Z,23.40
2018-12-18T06:28:46.955Z,24.30
2018-12-18T06:31:15.668Z,23.18
2018-12-18T06:33:44.375Z,24.12
2018-12-18T06:36:13.111Z,24.60
2018-12-18T06:38:41.780Z,23.18
2018-12-18T06:41:10.517Z,24.18
2018-12-18T06:43:39.184Z,22.87
2018-12-18T06:46:07.930Z,22.27
2018-12-18T06:48:36.641Z,22.13
2018-12-18T06:51:05.347Z,22.95
2018-12-18T06:53:34.098Z,23.15
2018-12-18T06:56:02.858Z,22.42
2018-12-18T06:58:31.625Z,22.85
2018-12-18T07:01:01.425Z,22.82
2018-12-18T07:03:30.441Z,23.55
2018-12-18T07:05:59.165Z,22.10
2018-12-18T07:08:27.863Z,21.12
2018-12-18T07:10:57.798Z,21.45
2018-12-18T07:13:26.557Z,21.00
2018-12-18T07:15:55.358Z,21.95
2018-12-18T07:18:24.069Z,21.00
2018-12-18T07:20:52.816Z,20.95
2018-12-18T07:23:21.663Z,21.70
2018-12-18T07:25:50.378Z,20.23
2018-12-18T07:28:19.114Z,21.50
2018-12-18T07:30:47.788Z,21.48
2018-12-18T07:33:16.570Z,19.90
2018-12-18T07:35:45.249Z,22.60
2018-12-18T07:38:13.974Z,20.45
2018-12-18T07:40:42.671Z,21.25
2018-12-18T07:43:11.361Z,21.75
2018-12-18T07:45:40.172Z,20.17
2018-12-18T07:48:08.978Z,20.80
2018-12-18T07:50:37.689Z,22.48
2018-12-18T07:53:06.401Z,22.17
2018-12-18T07:55:35.112Z,22.22
2018-12-18T07:58:03.919Z,19.75
2018-12-18T08:00:32.629Z,18.73
2018-12-18T08:03:02.175Z,18.92
2018-12-18T08:05:30.856Z,22.80
2018-12-18T08:07:59.565Z,21.20
2018-12-18T08:10:28.283Z,20.62
2018-12-18T08:12:57.150Z,21.95
2018-12-18T08:15:25.904Z,20.77
2018-12-18T08:17:54.599Z,21.60
2018-12-18T08:20:23.264Z,20.55
2018-12-18T08:22:52.014Z,20.08
2018-12-18T08:25:20.739Z,20.92
2018-12-18T08:27:49.494Z,20.82
2018-12-18T08:30:19.140Z,18.77
2018-12-18T08:32:47.801Z,20.50
2018-12-18T08:35:16.577Z,20.25
2018-12-18T08:37:45.291Z,22.22
2018-12-18T08:40:13.997Z,19.55
2018-12-18T08:42:42.692Z,20.57
2018-12-18T08:45:11.433Z,20.50
2018-12-18T08:47:40.114Z,21.35
2018-12-18T08:50:08.874Z,18.73
2018-12-18T08:52:37.592Z,19.40
2018-12-18T08:55:06.828Z,20.65
2018-12-18T08:57:35.532Z,20.15
2018-12-18T09:00:06.169Z,19.67
2018-12-18T09:02:34.945Z,18.90
2018-12-18T09:05:03.623Z,20.27
2018-12-18T09:07:32.332Z,19.70
2018-12-18T09:10:01.055Z,19.32
2018-12-18T09:12:29.818Z,18.55
2018-12-18T09:14:58.554Z,18.90
2018-12-18T09:17:32.767Z,19.60
2018-12-18T09:20:01.511Z,18.67
2018-12-18T09:22:30.913Z,19.57
2018-12-18T09:24:59.598Z,19.60
2018-12-18T09:27:28.530Z,19.80
2018-12-18T09:29:57.263Z,18.30
2018-12-18T09:32:25.962Z,19.62
2018-12-18T09:34:54.709Z,20.70
2018-12-18T09:37:23.421Z,18.52
2018-12-18T09:39:52.124Z,18.82
2018-12-18T09:42:26.387Z,19.52
2018-12-18T09:44:55.231Z,19.55
2018-12-18T09:47:23.942Z,19.45
2018-12-18T09:49:52.702Z,19.48
2018-12-18T09:52:21.364Z,23.18
2018-12-18T09:54:50.096Z,18.90
2018-12-18T09:57:24.199Z,20.60
2018-12-18T09:59:52.913Z,20.43
2018-12-18T10:02:21.647Z,18.75
2018-12-18T10:04:50.401Z,18.48
2018-12-18T10:07:19.215Z,20.90
2018-12-18T10:09:47.934Z,19.55
2018-12-18T10:12:18.324Z,19.52
2018-12-18T10:14:47.029Z,18.48
2018-12-18T10:17:15.732Z,17.70
2018-12-18T10:19:44.410Z,17.25
2018-12-18T10:22:13.134Z,18.40
2018-12-18T10:24:41.919Z,19.05
2018-12-18T10:27:10.625Z,19.32
2018-12-18T10:29:39.310Z,18.60
2018-12-18T10:32:08.046Z,17.62
2018-12-18T10:34:36.773Z,17.95
2018-12-18T10:37:05.529Z,18.55
2018-12-18T10:39:34.243Z,20.20
2018-12-18T10:42:02.944Z,19.02
2018-12-18T10:44:31.660Z,21.30
2018-12-18T10:47:00.357Z,19.27
2018-12-18T10:49:29.095Z,18.55
2018-12-18T10:51:57.868Z,18.87
2018-12-18T10:54:26.569Z,18.85
2018-12-18T10:56:55.409Z,20.15
2018-12-18T10:59:24.158Z,17.75
2018-12-18T11:01:54.561Z,18.52
2018-12-18T11:04:23.264Z,19.60
2018-12-18T11:06:52.019Z,16.65
2018-12-18T11:09:20.709Z,18.50
2018-12-18T11:11:49.462Z,18.12
2018-12-18T11:14:18.347Z,18.07
2018-12-18T11:16:47.046Z,18.45
2018-12-18T11:19:15.808Z,18.30
2018-12-18T11:21:44.489Z,17.87
2018-12-18T11:24:13.237Z,17.98
2018-12-18T11:26:41.987Z,17.32
2018-12-18T11:29:10.689Z,19.00
2018-12-18T11:31:39.702Z,17.57
2018-12-18T11:34:08.400Z,19.42
2018-12-18T11:36:37.114Z,26.40
2018-12-18T11:39:06.714Z,18.75
2018-12-18T11:41:35.376Z,17.57
2018-12-18T11:44:04.056Z,17.77
2018-12-18T11:46:32.780Z,18.57
2018-12-18T11:49:01.500Z,17.23
2018-12-18T11:51:30.224Z,18.02
2018-12-18T11:53:58.933Z,16.42
2018-12-18T11:56:27.673Z,15.83
2018-12-18T11:58:56.331Z,15.78
2018-12-18T12:01:25.013Z,16.25
2018-12-18T12:03:53.787Z,15.43
2018-12-18T12:06:23.125Z,15.38
2018-12-18T12:08:52.292Z,15.48
2018-12-18T12:11:21.041Z,14.85
2018-12-18T12:13:49.757Z,14.10
2018-12-18T12:16:18.456Z,15.35
2018-12-18T12:18:47.172Z,13.65
2018-12-18T12:21:15.836Z,14.95
2018-12-18T12:23:44.549Z,14.83
2018-12-18T12:26:18.634Z,15.03
2018-12-18T12:28:47.350Z,15.53
2018-12-18T12:31:16.074Z,15.43
2018-12-18T12:33:44.794Z,15.98
2018-12-18T12:36:13.493Z,16.27
2018-12-18T12:38:42.211Z,16.37
2018-12-18T12:41:10.949Z,17.00
2018-12-18T12:43:39.716Z,16.77
2018-12-18T12:46:08.373Z,15.08
2018-12-18T12:51:42.750Z,15.95
2018-12-18T12:54:11.600Z,15.75
2018-12-18T12:56:40.402Z,17.12
2018-12-18T12:59:09.189Z,17.32
2018-12-18T13:01:42.188Z,17.85
2018-12-18T13:04:08.627Z,17.00
2018-12-18T13:06:37.287Z,17.95
2018-12-18T13:09:07.264Z,16.80
2018-12-18T13:11:35.968Z,17.15
2018-12-18T13:14:04.768Z,18.07
2018-12-18T13:16:33.450Z,17.00
2018-12-18T13:19:02.189Z,17.20
2018-12-18T13:21:30.924Z,16.60
2018-12-18T13:23:59.672Z,18.02
2018-12-18T13:26:28.393Z,18.35
2018-12-18T13:28:57.097Z,19.30
2018-12-18T13:31:25.833Z,18.07
2018-12-18T13:33:54.745Z,17.30
2018-12-18T13:36:23.494Z,17.20
2018-12-18T13:38:52.239Z,17.10
2018-12-18T13:41:21.039Z,18.42
2018-12-18T13:43:49.756Z,19.12
2018-12-18T13:46:18.433Z,18.12
2018-12-18T13:48:47.137Z,17.73
2018-12-18T13:51:15.929Z,18.27
2018-12-18T13:53:44.670Z,18.75
2018-12-18T13:56:13.394Z,16.97
2018-12-18T13:58:42.211Z,17.60
2018-12-18T14:01:10.979Z,18.50
2018-12-18T14:03:39.712Z,18.40
2018-12-18T14:06:08.380Z,17.98
2018-12-18T14:08:37.098Z,18.95
2018-12-18T14:11:05.763Z,17.62
2018-12-18T14:13:34.476Z,19.27
2018-12-18T14:16:03.164Z,20.30
2018-12-18T14:18:31.900Z,20.25
2018-12-18T14:21:00.669Z,18.67
2018-12-18T14:23:29.365Z,20.48
2018-12-18T14:25:58.114Z,18.82
2018-12-18T14:28:26.856Z,22.02
2018-12-18T14:30:55.558Z,21.85
2018-12-18T14:33:24.341Z,18.82
2018-12-18T14:35:55.447Z,20.15
2018-12-18T14:38:24.151Z,17.85
2018-12-18T14:40:52.849Z,17.62
2018-12-18T14:43:21.572Z,19.42
2018-12-18T14:45:50.363Z,17.95
2018-12-18T14:48:19.031Z,18.30
2018-12-18T14:50:47.767Z,16.42
2018-12-18T14:53:16.619Z,17.27
2018-12-18T14:55:45.398Z,17.77
2018-12-18T14:58:14.147Z,16.35
2018-12-18T15:00:42.856Z,16.37
2018-12-18T15:03:11.635Z,17.73
2018-12-18T15:05:40.365Z,16.12
2018-12-18T15:08:09.051Z,15.18
2018-12-18T15:10:37.984Z,14.78
2018-12-18T15:13:06.795Z,16.55
2018-12-18T15:15:35.517Z,15.32
2018-12-18T15:18:04.270Z,14.10
2018-12-18T15:20:32.980Z,15.72
2018-12-18T15:23:01.734Z,17.48
2018-12-18T15:25:31.415Z,16.10
2018-12-18T15:28:00.130Z,15.18
2018-12-18T15:30:28.825Z,15.53
2018-12-18T15:32:57.563Z,16.37
2018-12-18T15:35:26.799Z,17.32
2018-12-18T15:37:55.518Z,17.07
2018-12-18T15:40:24.425Z,15.68
2018-12-18T15:42:53.158Z,15.30
2018-12-18T15:45:21.836Z,15.63
2018-12-18T15:47:50.615Z,16.93
2018-12-18T15:50:19.291Z,16.87
2018-12-18T15:52:48.052Z,16.57
2018-12-18T15:55:16.817Z,17.80
2018-12-18T15:57:45.565Z,17.70
2018-12-18T16:00:14.396Z,19.45
2018-12-18T16:02:43.195Z,20.92
2018-12-18T16:05:11.916Z,21.85
2018-12-18T16:07:40.625Z,18.27
2018-12-18T16:10:09.303Z,21.68
2018-12-18T16:12:38.008Z,24.05
2018-12-18T16:15:08.315Z,22.02
2018-12-18T16:17:37.071Z,23.22
2018-12-18T16:20:08.649Z,23.70
2018-12-18T16:22:37.426Z,24.07
2018-12-18T16:25:06.815Z,22.75
2018-12-18T16:27:35.573Z,22.77
2018-12-18T16:30:05.500Z,24.72
2018-12-18T16:32:34.204Z,24.07
2018-12-18T16:35:02.876Z,23.57
2018-12-18T16:37:31.807Z,23.80
2018-12-18T16:40:00.568Z,24.02
2018-12-18T16:42:29.401Z,22.77
2018-12-18T16:44:58.169Z,23.32
2018-12-18T16:47:27.076Z,24.25
2018-12-18T16:49:55.769Z,23.32
2018-12-18T16:52:24.520Z,22.98
2018-12-18T16:54:53.324Z,23.77
2018-12-18T16:57:22.281Z,24.65
2018-12-18T16:59:50.952Z,22.22
2018-12-18T17:02:20.230Z,24.07
2018-12-18T17:04:48.957Z,21.20
2018-12-18T17:07:17.752Z,22.25
2018-12-18T17:09:46.546Z,22.70
2018-12-18T17:12:15.413Z,21.02
2018-12-18T17:14:44.396Z,19.25
2018-12-18T17:17:13.071Z,21.27
2018-12-18T17:19:41.828Z,20.40
2018-12-18T17:22:10.554Z,21.85
2018-12-18T17:24:39.310Z,22.48
2018-12-18T17:27:07.993Z,22.05
2018-12-18T17:29:36.702Z,25.20
2018-12-18T17:32:05.408Z,22.95
2018-12-18T17:34:34.200Z,24.10
2018-12-18T17:37:02.904Z,23.50
2018-12-18T17:39:31.679Z,20.97
2018-12-18T17:42:00.410Z,24.57
2018-12-18T17:44:29.150Z,22.55
2018-12-18T17:46:58.025Z,23.55
2018-12-18T17:49:26.778Z,22.50
2018-12-18T17:51:55.518Z,21.42
2018-12-18T17:54:24.223Z,23.18
2018-12-18T17:56:52.980Z,33.25
2018-12-18T17:59:21.803Z,27.13
2018-12-18T18:01:50.606Z,20.27
2018-12-18T18:04:19.304Z,22.58
2018-12-18T18:06:48.053Z,21.07
2018-12-18T18:09:16.724Z,21.33
2018-12-18T18:11:45.564Z,23.62
2018-12-18T18:14:14.341Z,23.15
2018-12-18T18:16:43.145Z,21.70
2018-12-18T18:19:11.869Z,21.48
2018-12-18T18:21:40.620Z,20.43
2018-12-18T18:24:09.337Z,22.25
2018-12-18T18:26:38.111Z,23.12
2018-12-18T18:29:06.881Z,21.37
2018-12-18T18:31:35.650Z,23.35
2018-12-18T18:34:04.599Z,23.35
2018-12-18T18:36:33.501Z,22.80
2018-12-18T18:39:02.293Z,22.77
2018-12-18T18:41:30.956Z,23.38
2018-12-18T18:43:59.678Z,23.40
2018-12-18T18:46:28.384Z,24.40
2018-12-18T18:48:57.081Z,26.35
2018-12-18T18:51:25.753Z,24.30
2018-12-18T18:53:54.488Z,23.87
2018-12-18T18:56:23.432Z,24.45
2018-12-18T18:58:52.190Z,24.02
2018-12-18T19:01:20.932Z,21.70
2018-12-18T19:03:49.641Z,23.90
2018-12-18T19:06:18.359Z,24.90
2018-12-18T19:08:47.078Z,21.37
2018-12-18T19:11:15.807Z,22.75
2018-12-18T19:13:44.515Z,21.35
2018-12-18T19:16:13.214Z,22.07
2018-12-18T19:18:41.964Z,19.30
2018-12-18T19:21:10.684Z,20.72
2018-12-18T19:23:39.438Z,34.08
2018-12-18T19:26:08.300Z,21.82
2018-12-18T19:28:37.054Z,22.65
2018-12-18T19:31:05.748Z,22.32
2018-12-18T19:33:36.935Z,22.75
2018-12-18T19:36:05.223Z,25.57
2018-12-18T19:38:33.940Z,24.43
2018-12-18T19:41:02.686Z,24.37
2018-12-18T19:43:31.410Z,25.77
2018-12-18T19:46:00.105Z,26.55
2018-12-18T19:48:28.790Z,24.95
2018-12-18T19:50:57.578Z,23.52
2018-12-18T19:53:26.299Z,23.75
2018-12-18T19:55:55.002Z,24.20
2018-12-18T19:58:23.699Z,25.92
2018-12-18T20:00:52.447Z,22.75
2018-12-18T20:03:21.164Z,25.00
2018-12-18T20:05:49.815Z,24.90
2018-12-18T20:08:18.522Z,23.75
2018-12-18T20:10:47.253Z,23.77
2018-12-18T20:13:15.989Z,24.55
2018-12-18T20:15:44.961Z,26.30
2018-12-18T20:18:13.706Z,25.25
2018-12-18T20:20:42.442Z,26.55
2018-12-18T20:23:11.141Z,24.37
2018-12-18T20:25:39.902Z,26.25
2018-12-18T20:28:08.634Z,24.00
2018-12-18T20:30:37.341Z,24.25
2018-12-18T20:33:06.175Z,23.35
2018-12-18T20:35:34.862Z,24.50
2018-12-18T20:38:03.587Z,23.73
2018-12-18T20:40:32.309Z,24.12
2018-12-18T20:43:01.035Z,23.12
2018-12-18T20:45:29.732Z,23.27
2018-12-18T20:47:58.965Z,24.55
2018-12-18T20:50:27.674Z,24.05
2018-12-18T20:52:56.425Z,23.12
2018-12-18T20:55:25.141Z,26.17
2018-12-18T20:57:54.038Z,23.73
2018-12-18T21:00:22.773Z,23.75
2018-12-18T21:02:51.757Z,26.02
2018-12-18T21:05:20.552Z,24.65
2018-12-18T21:07:49.303Z,25.95
2018-12-18T21:10:17.975Z,24.52
2018-12-18T21:12:46.739Z,26.55
2018-12-18T21:15:15.416Z,64.27
2018-12-18T21:17:44.154Z,28.50
2018-12-18T21:20:12.881Z,23.85
2018-12-18T21:22:41.644Z,22.73
2018-12-18T21:25:10.370Z,22.73
2018-12-18T21:27:39.072Z,22.80
2018-12-18T21:30:09.428Z,21.87
2018-12-18T21:32:38.108Z,22.07
2018-12-18T21:35:06.914Z,20.62
2018-12-18T21:37:35.638Z,20.75
2018-12-18T21:40:05.920Z,21.25
2018-12-18T21:42:34.616Z,21.90
2018-12-18T21:45:03.338Z,22.15
2018-12-18T21:47:32.083Z,21.70
2018-12-18T21:50:00.771Z,21.33
2018-12-18T21:52:29.479Z,22.45
2018-12-18T21:54:58.180Z,24.52
2018-12-18T21:57:26.934Z,21.95
2018-12-18T21:59:55.694Z,23.42
2018-12-18T22:02:24.441Z,21.97
2018-12-18T22:04:53.148Z,22.25
2018-12-18T22:07:22.051Z,22.17
2018-12-18T22:09:50.956Z,23.32
2018-12-18T22:12:19.671Z,22.55
2018-12-18T22:14:48.426Z,21.40
2018-12-18T22:17:17.170Z,23.60
2018-12-18T22:19:45.861Z,22.58
2018-12-18T22:22:14.624Z,22.25
2018-12-18T22:24:43.337Z,24.47
2018-12-18T22:27:12.065Z,22.70
2018-12-18T22:29:40.764Z,22.87
2018-12-18T22:32:09.476Z,21.65
2018-12-18T22:34:38.152Z,22.95
2018-12-18T22:37:06.862Z,24.43
2018-12-18T22:39:35.630Z,23.73
2018-12-18T22:42:04.409Z,23.38
2018-12-18T22:44:33.142Z,23.25
2018-12-18T22:47:01.884Z,24.85
2018-12-18T22:49:30.561Z,24.98
2018-12-18T22:51:59.276Z,23.57
2018-12-18T22:54:27.984Z,25.55
2018-12-18T22:56:56.676Z,23.80
2018-12-18T22:59:25.390Z,25.95
2018-12-18T23:01:54.141Z,24.90
2018-12-18T23:04:22.874Z,22.73
2018-12-18T23:06:51.638Z,25.40
2018-12-18T23:09:20.350Z,26.33
2018-12-18T23:11:49.064Z,26.05
2018-12-18T23:14:17.774Z,26.95
2018-12-18T23:16:46.466Z,25.88
2018-12-18T23:19:15.322Z,27.27
2018-12-18T23:21:43.993Z,26.75
2018-12-18T23:24:12.730Z,26.10
2018-12-18T23:26:41.439Z,26.65
2018-12-18T23:29:10.151Z,27.07
2018-12-18T23:31:38.891Z,26.02
2018-12-18T23:34:07.641Z,25.97
2018-12-18T23:36:36.348Z,27.65
2018-12-18T23:39:06.977Z,27.15
2018-12-18T23:41:36.594Z,28.52
2018-12-18T23:44:05.731Z,28.92
2018-12-18T23:46:34.513Z,27.20
2018-12-18T23:49:03.219Z,29.75
2018-12-18T23:51:31.956Z,28.23
2018-12-18T23:54:00.681Z,27.82
2018-12-18T23:56:29.356Z,27.95
2018-12-18T23:58:58.082Z,28.70
